»·PEaware :: N3817Z KBOI-KSUN

N3817Z :: KBOI-KSUN

FLIGHT INFORMATION

Flight Status: Arrived
Operator: Privately registered:
United States
More flights under this callsign
Pilot: Steven P. (19080)
Aircraft: PIPER PA-18 SUPER CUB
(PA18)
More flights by this aircraft type
Origin: KBOI Boise Air Terminal/Gowen
United States
Destination: KSUN Friedman Meml
United States
More flights between these airports :: More routes between these airports
Route:
File this flight plan on PilotEdge
Remarks:
Altitude:
(Current/Filed)
5,000ft
Speed:
(Current/Filed)
115kts
Departed: 11-Oct-18 08:47 AM
Arrived: 11-Oct-18 09:55 AM
Distance/Time
Traveled:
84nm/1:08
Distance/Time
To Go:
Arrived

Flight Plot

Page will automatically refresh every two minutes.

Flight plan parsing failed; only flown route is shown


Map Options




Map Legend


Flown Route
Filed Route
Departure Airport
Arrival Airport
Navaid (VOR, NDB)
Fix

Horizontal Profiles

Position Reports

Time Latitude Longitude Heading Altitude Ground
Speed
11-Oct-18 08:36 43.568842 -116.227591 183 2846ft 0kts
11-Oct-18 08:37 43.568842 -116.227591 183 2846ft 0kts
11-Oct-18 08:38 43.568842 -116.227591 183 2846ft 0kts
11-Oct-18 08:39 43.568842 -116.227591 183 2846ft 0kts
11-Oct-18 08:40 43.568842 -116.227591 183 2846ft 0kts
11-Oct-18 08:41 43.568842 -116.227591 183 2846ft 0kts
11-Oct-18 08:42 43.568842 -116.227591 183 2846ft 0kts
11-Oct-18 08:43 43.568842 -116.227591 183 2846ft 0kts
11-Oct-18 08:44 43.569141 -116.230260 294 2846ft 16kts
11-Oct-18 08:45 43.571059 -116.235989 277 2846ft 13kts
11-Oct-18 08:46 43.570886 -116.236272 252 2846ft 0kts
11-Oct-18 08:47 43.570886 -116.236272 252 2846ft 0kts
11-Oct-18 08:48 43.570886 -116.236272 252 2846ft 0kts
11-Oct-18 08:49 43.567685 -116.229267 114 3155ft 73kts
11-Oct-18 08:50 43.559659 -116.203501 114 4818ft 75kts
11-Oct-18 08:51 43.547691 -116.166605 115 5004ft 114kts
11-Oct-18 08:52 43.536456 -116.129969 115 5010ft 100kts
11-Oct-18 08:53 43.525021 -116.092864 115 5008ft 108kts
11-Oct-18 08:54 43.519500 -116.054624 95 5008ft 110kts
11-Oct-18 08:55 43.517689 -116.012449 95 5007ft 110kts
11-Oct-18 08:56 43.515821 -115.969728 95 5011ft 110kts
11-Oct-18 08:57 43.513928 -115.929365 95 5300ft 115kts
11-Oct-18 08:58 43.509102 -115.891407 51 5267ft 98kts
11-Oct-18 08:59 43.523316 -115.865672 63 4998ft 93kts
11-Oct-18 09:00 43.534588 -115.825376 75 4686ft 75kts
11-Oct-18 09:01 43.538813 -115.794231 78 5253ft 89kts
11-Oct-18 09:02 43.542366 -115.762943 79 5490ft 117kts
11-Oct-18 09:03 43.541678 -115.720933 82 5313ft 55kts
11-Oct-18 09:04 43.544105 -115.705852 69 4735ft 51kts
11-Oct-18 09:05 43.549205 -115.694325 239 4257ft 8kts
11-Oct-18 09:06 43.552071 -115.715589 292 4782ft 69kts
11-Oct-18 09:07 43.554815 -115.730993 281 4298ft 44kts
11-Oct-18 09:08 43.556731 -115.717805 38 4938ft 87kts
11-Oct-18 09:09 43.555904 -115.727988 205 4658ft 101kts
11-Oct-18 09:10 43.537267 -115.741275 16 5110ft 59kts
11-Oct-18 09:11 43.548759 -115.735023 12 4614ft 43kts
11-Oct-18 09:12 43.554845 -115.731838 18 4144ft 44kts
11-Oct-18 09:13 43.554966 -115.731679 202 4117ft 59kts
11-Oct-18 09:14 43.545911 -115.708144 129 4585ft 82kts
11-Oct-18 09:15 43.530977 -115.681777 117 4935ft 108kts
11-Oct-18 09:16 43.516827 -115.655216 101 4954ft 85kts
11-Oct-18 09:17 43.508752 -115.620242 109 5213ft 106kts
11-Oct-18 09:18 43.493937 -115.587198 121 5823ft 56kts
11-Oct-18 09:19 43.488102 -115.563259 133 6275ft 117kts
11-Oct-18 09:20 43.483639 -115.512073 72 6232ft 143kts
11-Oct-18 09:21 43.490568 -115.471872 71 7518ft 95kts
11-Oct-18 09:22 43.499418 -115.421162 72 7421ft 132kts
11-Oct-18 09:23 43.500971 -115.375275 90 7421ft 113kts
11-Oct-18 09:24 43.498732 -115.334031 91 7420ft 110kts
11-Oct-18 09:25 43.496453 -115.291616 91 7421ft 116kts
11-Oct-18 09:26 43.494053 -115.245727 91 7421ft 116kts
11-Oct-18 09:27 43.491710 -115.200969 90 7409ft 117kts
11-Oct-18 09:28 43.489384 -115.155322 90 7403ft 116kts
11-Oct-18 09:29 43.488957 -115.146633 90 7412ft 117kts
11-Oct-18 09:30 43.488904 -115.145548 90 7412ft 117kts
11-Oct-18 09:31 43.485219 -115.072891 90 8458ft 102kts
11-Oct-18 09:32 43.483276 -115.029424 90 9149ft 105kts
11-Oct-18 09:33 43.468619 -115.001407 154 8741ft 113kts
11-Oct-18 09:34 43.446470 -114.975091 127 6853ft 89kts
11-Oct-18 09:35 43.438328 -114.944442 94 6577ft 126kts
11-Oct-18 09:36 43.443034 -114.893633 93 6525ft 144kts
11-Oct-18 09:37 43.442206 -114.854812 88 6381ft 96kts
11-Oct-18 09:38 43.441186 -114.811417 104 6165ft 154kts
11-Oct-18 09:39 43.422148 -114.782678 151 5694ft 84kts
11-Oct-18 09:40 43.402962 -114.761377 122 6093ft 96kts
11-Oct-18 09:41 43.396556 -114.724287 94 6585ft 98kts
11-Oct-18 09:42 43.395047 -114.707780 97 6403ft 125kts
11-Oct-18 09:43 43.393094 -114.660526 81 6244ft 124kts
11-Oct-18 09:44 43.399906 -114.618548 73 6196ft 95kts
11-Oct-18 09:45 43.407491 -114.590368 56 6461ft 72kts
11-Oct-18 09:46 43.413845 -114.562832 85 6570ft 76kts
11-Oct-18 09:47 43.414697 -114.533306 84 6670ft 99kts
11-Oct-18 09:48 43.411575 -114.487645 82 6621ft 127kts
11-Oct-18 09:49 43.419391 -114.441721 66 6649ft 107kts
11-Oct-18 09:50 43.427002 -114.405288 85 6208ft 109kts
11-Oct-18 09:51 43.430913 -114.372856 82 6267ft 81kts
11-Oct-18 09:52 43.435219 -114.348880 74 6434ft 66kts
11-Oct-18 09:53 43.439983 -114.322413 42 6428ft 63kts
11-Oct-18 09:54 43.452503 -114.303317 53 6370ft 74kts
11-Oct-18 09:55 43.467154 -114.291254 353 6423ft 61kts
11-Oct-18 09:56 43.482676 -114.292194 351 5913ft 47kts
11-Oct-18 09:57 43.493333 -114.285273 319 5358ft 37kts
11-Oct-18 09:58 43.497808 -114.290500 231 5296ft 0kts
11-Oct-18 09:59 43.497808 -114.290500 231 5296ft 0kts
11-Oct-18 10:00 43.499339 -114.292727 323 5296ft 10kts
11-Oct-18 10:01 43.500914 -114.295253 0 5296ft 6kts
11-Oct-18 10:02 43.495987 -114.288067 326 5297ft 29kts

Navigation Log

Ident Type
Flight plan parsing failed, navigation log unavailable